Terminal Aerodrome Forecast
Issued by NWS Grand Junction, CO

Home | Current Version | Previous Version | Text Only | Print | Product List | Glossary On
Versions: 1 2 3 4 5 6 7 8 9 10 11 12 13 14 15 16 17 18 19 20 21 22 23 24 25 26 27 28 29 30 31 32 33 34 35 36 37 38 39 40
000
FTUS45 KGJT 290909 AAD
TAFGJT
TAF AMD
KGJT 290909Z 2909/3006 VRB04KT 4SM RA BR SCT045 BKN080
     FM291000 11010KT P6SM OVC120
     FM291200 14008KT P6SM BKN150
     FM291800 15007KT P6SM FEW120 BKN150
     FM292100 18008KT P6SM VCTS SCT080CB BKN100
      TEMPO 2921/2924 -TSRA SCT080CB
     FM300000 12012KT P6SM VCSH OVC100=

USA.gov is the U.S. government's official web portal to all federal, state and local government web resources and services.